Terminal Aerodrome Forecast
Issued by NWS

Home | Current Version | Previous Version | Text Only | Print | Product List | Glossary On
Versions: 1 2 3 4 5 6 7 8 9 10 11 12 13 14 15 16 17 18 19 20
079
FTUS41 KBGM 251735
TAFITH
TAF
KITH 251735Z 2518/2618 24012G22KT 5SM SHRA BR BKN015 OVC035
     FM252000 30012G22KT P6SM -SHRA BKN025 OVC035
     FM260000 29015G25KT P6SM BKN015 OVC025
     FM261400 30015G25KT P6SM BKN025=

USA.gov is the U.S. government's official web portal to all federal, state and local government web resources and services.